Time;durP1;ratioP1;P1;durP2;ratioP2;P2;SDS_P1;SDS_P2;PMS_P1;PMS_P2;Temp;Humidity;BMP_temperature;BMP_pressure;BME280_temperature;BME280_humidity;BME280_pressure;Samples;Min_cycle;Max_cycle;Signal;HPM_P1;HPM_P2
2022/02/19 00:02:08;;;;;;;4.70;1.13;;;;;;;;;;5091696;28;20448;-72
2022/02/19 00:04:35;;;;;;;3.50;1.90;;;;;;;;;;5090744;28;21057;-72
2022/02/19 00:07:02;;;;;;;1.47;1.07;;;;;;;;;;5091140;28;20872;-72
2022/02/19 00:09:30;;;;;;;5.17;1.13;;;;;;;;;;5086337;28;20483;-73
2022/02/19 00:11:57;;;;;;;4.47;1.27;;;;;;;;;;5092236;28;20882;-72
2022/02/19 00:14:24;;;;;;;4.70;1.50;;;;;;;;;;5091380;28;20514;-71
2022/02/19 00:16:51;;;;;;;11.83;1.30;;;;;;;;;;5091962;28;20476;-72
2022/02/19 00:19:20;;;;;;;2.90;1.17;;;;;;;;;;5089085;28;20484;-72
2022/02/19 00:21:47;;;;;;;3.20;1.40;;;;;;;;;;5091395;28;20456;-72
2022/02/19 00:24:14;;;;;;;2.77;1.40;;;;;;;;;;5091417;28;20536;-72
2022/02/19 00:26:41;;;;;;;7.00;1.47;;;;;;;;;;5091104;28;20463;-71
2022/02/19 00:29:09;;;;;;;6.17;1.30;;;;;;;;;;5091107;28;20455;-72
2022/02/19 00:31:36;;;;;;;4.53;2.60;;;;;;;;;;5090805;28;21102;-73
2022/02/19 00:34:03;;;;;;;5.80;1.70;;;;;;;;;;5090563;28;20495;-71
2022/02/19 00:36:32;;;;;;;7.30;2.33;;;;;;;;;;5090444;28;20441;-73
2022/02/19 00:38:59;;;;;;;2.10;1.20;;;;;;;;;;5091676;28;20526;-73
2022/02/19 00:41:26;;;;;;;3.40;1.33;;;;;;;;;;5090442;28;20935;-72
2022/02/19 00:43:55;;;;;;;4.90;1.30;;;;;;;;;;5091214;28;20456;-72
2022/02/19 00:46:22;;;;;;;4.47;1.73;;;;;;;;;;5089685;28;20878;-72
2022/02/19 00:48:49;;;;;;;5.40;1.20;;;;;;;;;;5090779;28;20455;-72
2022/02/19 00:51:16;;;;;;;4.13;1.73;;;;;;;;;;5090125;28;20531;-72
2022/02/19 00:53:45;;;;;;;4.37;1.40;;;;;;;;;;5091539;28;20480;-72
2022/02/19 00:56:12;;;;;;;5.10;1.50;;;;;;;;;;5090377;28;20934;-72
2022/02/19 00:58:40;;;;;;;2.83;1.23;;;;;;;;;;5089871;28;20444;-72
2022/02/19 01:01:07;;;;;;;4.10;1.63;;;;;;;;;;5090255;28;21075;-71
2022/02/19 01:03:34;;;;;;;8.27;2.13;;;;;;;;;;5089845;28;21329;-71
2022/02/19 01:06:01;;;;;;;4.13;1.70;;;;;;;;;;5089978;28;20540;-72
2022/02/19 01:08:28;;;;;;;3.47;1.40;;;;;;;;;;5090356;28;20445;-72
2022/02/19 01:10:57;;;;;;;3.73;2.00;;;;;;;;;;5090701;28;20484;-72
2022/02/19 01:13:24;;;;;;;3.53;1.30;;;;;;;;;;5081237;28;20446;-72
2022/02/19 01:15:52;;;;;;;6.10;1.70;;;;;;;;;;5086589;28;20453;-72
2022/02/19 01:18:19;;;;;;;5.70;1.63;;;;;;;;;;5090104;28;20467;-72
2022/02/19 01:20:46;;;;;;;3.67;1.70;;;;;;;;;;5089986;28;20540;-71
2022/02/19 01:23:14;;;;;;;5.80;1.20;;;;;;;;;;5090691;28;20917;-71
2022/02/19 01:25:41;;;;;;;5.73;1.20;;;;;;;;;;5089859;28;20483;-71
2022/02/19 01:28:10;;;;;;;4.40;1.47;;;;;;;;;;5090859;28;20448;-71
2022/02/19 01:30:37;;;;;;;3.13;1.03;;;;;;;;;;5090537;28;21248;-72
2022/02/19 01:33:04;;;;;;;9.10;1.70;;;;;;;;;;5091312;28;20811;-71
2022/02/19 01:35:31;;;;;;;6.63;1.23;;;;;;;;;;5093281;28;20447;-72
2022/02/19 01:37:58;;;;;;;2.20;1.10;;;;;;;;;;5094497;28;20933;-72
2022/02/19 01:40:26;;;;;;;5.07;1.50;;;;;;;;;;5093822;28;20448;-72
2022/02/19 01:42:53;;;;;;;5.40;1.27;;;;;;;;;;5094797;28;20455;-72
2022/02/19 01:45:21;;;;;;;2.43;1.00;;;;;;;;;;5093612;28;20575;-72
2022/02/19 01:47:49;;;;;;;2.30;1.00;;;;;;;;;;5090786;28;20523;-71
2022/02/19 01:50:16;;;;;;;3.63;1.10;;;;;;;;;;5083006;28;20525;-71
2022/02/19 01:52:45;;;;;;;5.90;1.57;;;;;;;;;;5094543;28;21021;-71
2022/02/19 01:55:13;;;;;;;4.40;1.63;;;;;;;;;;5094479;28;20448;-71
2022/02/19 01:57:40;;;;;;;3.57;1.03;;;;;;;;;;5094119;28;20523;-71
2022/02/19 02:00:08;;;;;;;4.57;1.50;;;;;;;;;;5091190;28;20886;-72
2022/02/19 02:02:37;;;;;;;6.97;1.70;;;;;;;;;;5093409;28;20551;-71
2022/02/19 02:05:04;;;;;;;4.87;1.53;;;;;;;;;;5094108;28;20555;-71
2022/02/19 02:07:32;;;;;;;5.60;1.60;;;;;;;;;;5093652;28;20440;-71
2022/02/19 02:09:59;;;;;;;4.03;1.53;;;;;;;;;;5094790;28;20449;-71
2022/02/19 02:12:27;;;;;;;4.50;1.73;;;;;;;;;;5092681;28;20478;-71
2022/02/19 02:14:54;;;;;;;8.90;1.57;;;;;;;;;;5094463;28;20562;-71
2022/02/19 02:17:21;;;;;;;4.60;1.50;;;;;;;;;;5090362;28;20531;-72
2022/02/19 02:19:50;;;;;;;2.57;1.30;;;;;;;;;;5093876;28;20479;-72
2022/02/19 02:22:18;;;;;;;4.73;1.10;;;;;;;;;;5093359;28;20462;-72
2022/02/19 02:24:46;;;;;;;6.80;1.40;;;;;;;;;;5094689;28;20562;-72
2022/02/19 02:27:13;;;;;;;5.17;1.53;;;;;;;;;;5092540;28;20956;-72
2022/02/19 02:29:41;;;;;;;2.60;1.03;;;;;;;;;;5094690;28;20442;-71
2022/02/19 02:32:08;;;;;;;5.67;1.50;;;;;;;;;;5089378;28;20887;-72
2022/02/19 02:34:36;;;;;;;3.47;1.17;;;;;;;;;;5093392;28;20444;-72
2022/02/19 02:37:03;;;;;;;3.90;1.03;;;;;;;;;;5092685;28;20482;-72
2022/02/19 02:39:32;;;;;;;6.13;1.40;;;;;;;;;;5093173;28;20539;-72
2022/02/19 02:41:59;;;;;;;4.23;1.20;;;;;;;;;;5093177;28;20448;-72
2022/02/19 02:44:26;;;;;;;3.90;2.20;;;;;;;;;;5091894;28;20947;-71
2022/02/19 02:46:53;;;;;;;5.57;1.80;;;;;;;;;;5091689;28;20441;-71
2022/02/19 02:49:21;;;;;;;3.40;1.30;;;;;;;;;;5093039;28;20544;-71
2022/02/19 02:51:48;;;;;;;5.87;1.50;;;;;;;;;;5092802;28;20840;-71
2022/02/19 02:54:15;;;;;;;7.50;1.63;;;;;;;;;;5073046;28;20503;-71
2022/02/19 02:56:43;;;;;;;4.67;1.50;;;;;;;;;;5072450;28;20454;-71
2022/02/19 02:59:11;;;;;;;2.53;1.30;;;;;;;;;;5072538;28;20481;-71
2022/02/19 03:01:38;;;;;;;2.50;1.17;;;;;;;;;;5071763;28;20469;-72
2022/02/19 03:04:05;;;;;;;4.50;1.40;;;;;;;;;;5072825;28;20533;-72
2022/02/19 03:06:32;;;;;;;4.93;1.50;;;;;;;;;;5071342;28;20452;-73
2022/02/19 03:08:59;;;;;;;3.90;1.53;;;;;;;;;;5072744;28;20528;-73
2022/02/19 03:11:27;;;;;;;5.83;1.60;;;;;;;;;;5071799;28;20503;-73
2022/02/19 03:13:55;;;;;;;2.27;1.37;;;;;;;;;;5071939;28;20934;-73
2022/02/19 03:16:22;;;;;;;3.50;1.20;;;;;;;;;;5071620;28;20456;-73
2022/02/19 03:18:49;;;;;;;3.10;1.07;;;;;;;;;;5072089;28;20468;-73
2022/02/19 03:21:17;;;;;;;4.30;1.50;;;;;;;;;;5060489;28;20943;-73
2022/02/19 03:23:44;;;;;;;3.00;1.30;;;;;;;;;;5072134;28;20442;-73
2022/02/19 03:26:11;;;;;;;3.80;1.07;;;;;;;;;;5071722;28;20454;-72
2022/02/19 03:28:39;;;;;;;3.67;1.37;;;;;;;;;;5071583;28;20449;-73
2022/02/19 03:31:07;;;;;;;10.50;2.30;;;;;;;;;;5071990;28;20801;-72
2022/02/19 03:33:34;;;;;;;5.43;1.33;;;;;;;;;;5071654;28;20495;-72
2022/02/19 03:36:02;;;;;;;5.20;1.20;;;;;;;;;;5071612;28;20540;-72
2022/02/19 03:38:29;;;;;;;4.23;1.10;;;;;;;;;;5071021;28;20937;-72
2022/02/19 03:40:56;;;;;;;6.57;1.70;;;;;;;;;;5071927;28;20507;-72
2022/02/19 03:43:23;;;;;;;3.57;1.43;;;;;;;;;;5070784;28;20451;-72
2022/02/19 03:45:50;;;;;;;12.57;1.60;;;;;;;;;;5071260;28;20471;-72
2022/02/19 03:48:19;;;;;;;4.23;1.87;;;;;;;;;;5071257;28;20452;-72
2022/02/19 03:50:46;;;;;;;11.07;2.33;;;;;;;;;;5071650;28;20449;-72
2022/02/19 03:53:13;;;;;;;5.10;1.67;;;;;;;;;;5083413;28;20561;-72
2022/02/19 03:55:40;;;;;;;7.97;2.17;;;;;;;;;;5091402;28;20535;-72
2022/02/19 03:58:07;;;;;;;5.30;1.80;;;;;;;;;;5090910;28;20453;-72
2022/02/19 04:00:35;;;;;;;5.67;1.47;;;;;;;;;;5090729;28;20444;-72
2022/02/19 04:03:02;;;;;;;10.80;1.67;;;;;;;;;;5092035;28;20557;-72
2022/02/19 04:05:32;;;;;;;7.23;1.23;;;;;;;;;;5090583;28;20448;-73
2022/02/19 04:07:59;;;;;;;9.70;1.50;;;;;;;;;;5092018;28;20448;-72
2022/02/19 04:10:26;;;;;;;5.73;1.40;;;;;;;;;;5090965;28;20491;-72
2022/02/19 04:12:53;;;;;;;2.90;1.03;;;;;;;;;;5090947;28;20567;-72
2022/02/19 04:15:20;;;;;;;6.83;1.17;;;;;;;;;;5090527;28;20531;-72
2022/02/19 04:17:47;;;;;;;6.37;2.13;;;;;;;;;;5091914;28;20527;-71
2022/02/19 04:20:15;;;;;;;5.40;1.53;;;;;;;;;;5090900;28;20452;-72
2022/02/19 04:22:44;;;;;;;4.33;1.40;;;;;;;;;;5079026;28;20457;-71
2022/02/19 04:25:11;;;;;;;5.20;1.00;;;;;;;;;;5080679;28;20477;-71
2022/02/19 04:27:39;;;;;;;2.57;0.80;;;;;;;;;;5090530;28;20494;-72
2022/02/19 04:30:07;;;;;;;3.57;1.13;;;;;;;;;;5091271;28;20449;-71
2022/02/19 04:32:34;;;;;;;5.47;1.17;;;;;;;;;;5089797;28;20464;-71
2022/02/19 04:35:01;;;;;;;5.80;1.40;;;;;;;;;;5090683;28;20448;-72
2022/02/19 04:37:29;;;;;;;3.07;1.27;;;;;;;;;;5079390;28;20437;-72
2022/02/19 04:39:57;;;;;;;4.00;1.50;;;;;;;;;;5090601;28;20798;-71
2022/02/19 04:42:25;;;;;;;6.53;1.50;;;;;;;;;;5089827;28;20534;-71
2022/02/19 04:44:52;;;;;;;5.90;1.10;;;;;;;;;;5090699;28;20963;-71
2022/02/19 04:47:19;;;;;;;5.00;1.40;;;;;;;;;;5089953;28;21019;-71
2022/02/19 04:49:46;;;;;;;4.17;1.80;;;;;;;;;;5091511;28;20497;-71
2022/02/19 04:52:14;;;;;;;3.53;1.10;;;;;;;;;;5090500;28;20488;-71
2022/02/19 04:54:42;;;;;;;3.20;1.00;;;;;;;;;;5090394;28;20444;-72
2022/02/19 04:57:10;;;;;;;9.50;1.93;;;;;;;;;;5082853;28;20455;-72
2022/02/19 04:59:37;;;;;;;8.47;1.77;;;;;;;;;;5087630;28;20536;-72
2022/02/19 05:02:05;;;;;;;4.30;1.27;;;;;;;;;;5090802;28;20531;-71
2022/02/19 05:04:32;;;;;;;7.40;1.60;;;;;;;;;;5089975;28;20448;-72
2022/02/19 05:06:59;;;;;;;5.37;1.40;;;;;;;;;;5090271;28;20451;-72
2022/02/19 05:09:26;;;;;;;1.90;0.90;;;;;;;;;;5089402;28;20449;-72
2022/02/19 05:11:53;;;;;;;6.93;1.27;;;;;;;;;;5090468;28;20528;-72
2022/02/19 05:14:22;;;;;;;3.30;1.03;;;;;;;;;;5089548;28;20440;-72
2022/02/19 05:16:49;;;;;;;4.83;1.40;;;;;;;;;;5089695;28;20456;-72
2022/02/19 05:19:17;;;;;;;3.87;1.60;;;;;;;;;;5089690;28;20448;-72
2022/02/19 05:21:44;;;;;;;6.07;1.57;;;;;;;;;;5090847;28;20459;-72
2022/02/19 05:24:12;;;;;;;8.90;1.60;;;;;;;;;;5086625;28;20446;-72
2022/02/19 05:26:39;;;;;;;6.27;1.50;;;;;;;;;;5082029;28;20456;-73
2022/02/19 05:29:07;;;;;;;10.73;1.67;;;;;;;;;;5083410;28;20476;-72
2022/02/19 05:31:35;;;;;;;10.57;1.47;;;;;;;;;;5081404;28;20448;-72
2022/02/19 05:34:03;;;;;;;3.77;1.17;;;;;;;;;;5090700;28;20495;-71
2022/02/19 05:36:30;;;;;;;3.00;1.00;;;;;;;;;;5089063;28;20456;-72
2022/02/19 05:39:01;;;;;;;4.20;1.57;;;;;;;;;;5086101;28;20532;-71
2022/02/19 05:41:28;;;;;;;7.20;1.70;;;;;;;;;;5089679;28;20439;-72
2022/02/19 05:43:55;;;;;;;5.43;1.63;;;;;;;;;;5090214;28;20979;-72
2022/02/19 05:46:22;;;;;;;7.67;1.90;;;;;;;;;;5089396;28;21006;-72
2022/02/19 05:48:51;;;;;;;2.30;1.20;;;;;;;;;;5090141;28;20448;-72
2022/02/19 05:51:18;;;;;;;2.00;1.27;;;;;;;;;;5083548;28;20457;-72
2022/02/19 05:53:46;;;;;;;6.13;2.23;;;;;;;;;;5090471;28;20579;-72
2022/02/19 05:56:13;;;;;;;4.73;1.37;;;;;;;;;;5090064;28;20449;-72
2022/02/19 05:58:42;;;;;;;2.80;1.27;;;;;;;;;;5089747;28;20436;-72
2022/02/19 06:01:10;;;;;;;7.77;1.30;;;;;;;;;;5090586;28;20448;-72
2022/02/19 06:03:38;;;;;;;6.20;1.80;;;;;;;;;;5089922;28;20792;-72
2022/02/19 06:06:07;;;;;;;6.30;1.57;;;;;;;;;;5089510;28;20441;-72
2022/02/19 06:08:34;;;;;;;3.00;1.43;;;;;;;;;;5089658;28;20655;-72
2022/02/19 06:11:02;;;;;;;3.57;1.60;;;;;;;;;;5090272;28;20557;-72
2022/02/19 06:13:29;;;;;;;2.50;1.20;;;;;;;;;;5089647;28;20519;-72
2022/02/19 06:15:58;;;;;;;4.03;1.13;;;;;;;;;;5089625;28;20793;-72
2022/02/19 06:18:26;;;;;;;5.83;1.60;;;;;;;;;;5089407;28;20451;-72
2022/02/19 06:20:53;;;;;;;6.23;1.63;;;;;;;;;;5092749;28;20445;-72
2022/02/19 06:23:21;;;;;;;5.70;1.43;;;;;;;;;;5093097;28;20448;-72
2022/02/19 06:25:48;;;;;;;3.07;1.00;;;;;;;;;;5094080;28;20552;-72
2022/02/19 06:28:16;;;;;;;1.90;1.20;;;;;;;;;;5093786;28;20448;-72
2022/02/19 06:30:43;;;;;;;2.33;1.20;;;;;;;;;;5093920;28;20472;-72
2022/02/19 06:33:10;;;;;;;4.40;1.60;;;;;;;;;;5089490;28;20514;-71
2022/02/19 06:35:37;;;;;;;3.63;1.17;;;;;;;;;;5083108;28;20547;-72
2022/02/19 06:38:04;;;;;;;6.13;1.90;;;;;;;;;;5094645;28;20445;-69
2022/02/19 06:40:33;;;;;;;8.07;1.70;;;;;;;;;;5093844;28;20448;-69
2022/02/19 06:43:00;;;;;;;5.37;1.20;;;;;;;;;;5094618;28;20535;-70
2022/02/19 06:45:27;;;;;;;4.87;2.17;;;;;;;;;;5092708;28;20470;-71
2022/02/19 06:47:55;;;;;;;7.57;1.80;;;;;;;;;;5093233;28;20520;-71
2022/02/19 06:50:22;;;;;;;8.27;1.70;;;;;;;;;;5092726;28;20536;-72
2022/02/19 06:52:49;;;;;;;4.90;1.73;;;;;;;;;;5093111;28;20537;-71
2022/02/19 06:55:16;;;;;;;3.83;1.20;;;;;;;;;;5092271;28;20970;-72
2022/02/19 06:57:47;;;;;;;4.80;1.60;;;;;;;;;;5092774;28;20982;-72
2022/02/19 07:00:15;;;;;;;6.40;1.80;;;;;;;;;;5092916;28;20441;-72
2022/02/19 07:02:42;;;;;;;10.43;2.13;;;;;;;;;;5089086;28;20570;-71
2022/02/19 07:05:10;;;;;;;10.23;1.83;;;;;;;;;;5092411;28;20528;-72
2022/02/19 07:07:37;;;;;;;4.30;1.50;;;;;;;;;;5093513;28;20501;-71
2022/02/19 07:10:06;;;;;;;2.93;1.63;;;;;;;;;;5077680;28;20812;-71
2022/02/19 07:12:33;;;;;;;3.70;1.23;;;;;;;;;;5088919;28;20607;-71
2022/02/19 07:15:02;;;;;;;7.90;1.10;;;;;;;;;;5094262;28;20531;-71
2022/02/19 07:17:29;;;;;;;5.50;1.23;;;;;;;;;;5094152;28;20468;-71
2022/02/19 07:19:56;;;;;;;7.17;1.13;;;;;;;;;;5095574;28;20476;-70
2022/02/19 07:22:23;;;;;;;5.90;2.00;;;;;;;;;;5094138;28;20455;-71
2022/02/19 07:24:50;;;;;;;2.63;1.27;;;;;;;;;;5093092;28;20445;-72
2022/02/19 07:27:17;;;;;;;2.53;1.23;;;;;;;;;;5092001;28;20524;-71
2022/02/19 07:29:45;;;;;;;4.50;1.43;;;;;;;;;;5093241;28;20531;-71
2022/02/19 07:32:15;;;;;;;4.50;1.40;;;;;;;;;;5091545;28;20962;-71
2022/02/19 07:34:42;;;;;;;2.73;1.03;;;;;;;;;;5086778;28;20496;-71
2022/02/19 07:37:10;;;;;;;9.13;1.43;;;;;;;;;;5092636;28;20505;-71
2022/02/19 07:39:37;;;;;;;5.53;1.30;;;;;;;;;;5087884;28;20603;-72
2022/02/19 07:42:04;;;;;;;4.50;1.63;;;;;;;;;;5092621;28;20441;-71
2022/02/19 07:44:32;;;;;;;5.77;1.20;;;;;;;;;;5091407;28;20510;-72
2022/02/19 07:46:59;;;;;;;4.47;2.23;;;;;;;;;;5092318;28;20936;-71
2022/02/19 08:00:31;;;;;;;3.67;1.10;;;;;;;;;;5065123;28;20420;-71
2022/02/19 08:02:58;;;;;;;3.43;1.20;;;;;;;;;;5091750;28;20457;-71
2022/02/19 08:05:27;;;;;;;6.90;1.93;;;;;;;;;;5090792;28;20536;-71
2022/02/19 08:07:54;;;;;;;3.93;1.70;;;;;;;;;;5091678;28;20936;-71
2022/02/19 08:10:21;;;;;;;5.60;1.40;;;;;;;;;;5091160;28;20468;-72
2022/02/19 08:12:48;;;;;;;3.03;1.50;;;;;;;;;;5092250;28;20527;-72
2022/02/19 08:15:15;;;;;;;5.40;1.27;;;;;;;;;;5091023;28;20452;-72
2022/02/19 08:17:43;;;;;;;5.40;1.77;;;;;;;;;;5091536;28;20452;-72
2022/02/19 08:20:10;;;;;;;7.83;2.10;;;;;;;;;;5092221;28;20539;-72
2022/02/19 08:22:38;;;;;;;5.70;1.47;;;;;;;;;;5091669;28;20464;-71
2022/02/19 08:25:06;;;;;;;7.03;1.60;;;;;;;;;;5088280;28;20498;-71
2022/02/19 08:27:38;;;;;;;5.87;1.27;;;;;;;;;;5090015;28;20710;-71
2022/02/19 08:30:06;;;;;;;5.90;1.47;;;;;;;;;;5090558;28;20994;-72
2022/02/19 08:32:33;;;;;;;4.00;1.63;;;;;;;;;;5090787;28;20531;-72
2022/02/19 08:35:00;;;;;;;3.97;1.77;;;;;;;;;;5084547;28;20592;-72
2022/02/19 08:37:29;;;;;;;5.50;1.50;;;;;;;;;;5091044;28;20448;-72
2022/02/19 08:39:57;;;;;;;2.57;1.00;;;;;;;;;;5091334;28;20936;-72
2022/02/19 08:42:25;;;;;;;2.00;1.47;;;;;;;;;;5088032;28;20964;-72
2022/02/19 08:44:52;;;;;;;4.20;1.00;;;;;;;;;;5085064;28;20472;-72
2022/02/19 08:47:19;;;;;;;3.90;1.40;;;;;;;;;;5087634;28;20440;-72
2022/02/19 08:49:46;;;;;;;3.33;1.00;;;;;;;;;;5091023;28;20441;-71
2022/02/19 08:52:13;;;;;;;7.03;1.60;;;;;;;;;;5092504;28;20563;-72
2022/02/19 08:54:40;;;;;;;3.17;1.50;;;;;;;;;;5090333;28;20487;-71
2022/02/19 08:57:09;;;;;;;2.47;1.27;;;;;;;;;;5091080;28;21017;-71
2022/02/19 08:59:36;;;;;;;4.77;1.63;;;;;;;;;;5090379;28;20448;-72
2022/02/19 09:02:03;;;;;;;4.70;1.80;;;;;;;;;;5081844;28;20453;-70
2022/02/19 09:04:31;;;;;;;5.33;1.20;;;;;;;;;;5087060;28;20921;-72
2022/02/19 09:06:58;;;;;;;4.70;1.27;;;;;;;;;;5090028;28;20448;-70
2022/02/19 09:09:25;;;;;;;5.50;1.70;;;;;;;;;;5087571;28;20443;-71
2022/02/19 09:11:52;;;;;;;6.40;1.67;;;;;;;;;;5084048;28;20459;-71
2022/02/19 09:14:21;;;;;;;5.70;1.73;;;;;;;;;;5088515;28;20594;-70
2022/02/19 09:16:48;;;;;;;5.43;1.43;;;;;;;;;;5082907;28;20921;-71
2022/02/19 09:19:15;;;;;;;3.27;1.30;;;;;;;;;;5090927;28;20494;-74
2022/02/19 09:21:44;;;;;;;4.40;1.83;;;;;;;;;;5091571;28;20801;-71
2022/02/19 09:24:12;;;;;;;8.03;1.90;;;;;;;;;;5085359;28;20453;-71
2022/02/19 09:26:39;;;;;;;4.33;2.17;;;;;;;;;;5086005;28;20476;-70
2022/02/19 09:29:06;;;;;;;3.60;1.30;;;;;;;;;;5091288;28;20448;-71
2022/02/19 09:31:35;;;;;;;2.17;0.93;;;;;;;;;;5090273;28;20858;-71
2022/02/19 09:34:02;;;;;;;4.40;1.27;;;;;;;;;;5085555;28;20482;-72
2022/02/19 09:36:29;;;;;;;6.30;1.50;;;;;;;;;;5089609;28;20476;-72
2022/02/19 09:38:57;;;;;;;5.10;1.43;;;;;;;;;;5090869;28;20498;-71
2022/02/19 09:41:24;;;;;;;3.57;1.50;;;;;;;;;;5090351;28;20911;-72
2022/02/19 09:43:51;;;;;;;3.60;1.03;;;;;;;;;;5089890;28;20449;-70
2022/02/19 09:46:18;;;;;;;7.43;1.90;;;;;;;;;;5089643;28;20453;-71
2022/02/19 09:48:48;;;;;;;4.60;1.47;;;;;;;;;;5077593;28;20452;-70
2022/02/19 09:51:15;;;;;;;8.97;1.90;;;;;;;;;;5079098;28;20457;-74
2022/02/19 09:53:42;;;;;;;5.27;1.50;;;;;;;;;;5090324;28;20518;-69
2022/02/19 09:56:10;;;;;;;2.40;1.13;;;;;;;;;;5090106;28;20933;-69
2022/02/19 09:58:41;;;;;;;2.50;1.30;;;;;;;;;;5093953;28;20444;-70
2022/02/19 10:01:17;;;;;;;9.60;1.33;;;;;;;;;;5094234;28;20531;-69
2022/02/19 10:03:47;;;;;;;2.40;1.00;;;;;;;;;;5094658;28;20455;-69
2022/02/19 10:06:14;;;;;;;1.37;1.00;;;;;;;;;;5092996;28;20805;-71
2022/02/19 10:08:42;;;;;;;15.37;2.00;;;;;;;;;;5094006;28;20476;-69
2022/02/19 10:11:13;;;;;;;3.57;1.07;;;;;;;;;;5094047;28;20444;-69
2022/02/19 10:13:41;;;;;;;3.30;1.00;;;;;;;;;;5092249;28;20465;-69
2022/02/19 10:16:09;;;;;;;4.60;1.20;;;;;;;;;;5087278;28;20441;-69
2022/02/19 10:18:38;;;;;;;6.47;1.60;;;;;;;;;;5090781;28;20445;-70
2022/02/19 10:21:14;;;;;;;4.37;1.20;;;;;;;;;;5092337;28;20856;-70
2022/02/19 10:23:42;;;;;;;4.20;1.40;;;;;;;;;;5094061;28;20450;-71
2022/02/19 10:26:10;;;;;;;6.20;1.47;;;;;;;;;;5080321;28;20456;-71
2022/02/19 10:28:37;;;;;;;3.07;1.43;;;;;;;;;;5079764;28;20474;-71
2022/02/19 10:31:11;;;;;;;7.50;1.27;;;;;;;;;;5093915;28;20549;-71
2022/02/19 10:33:39;;;;;;;1.83;0.80;;;;;;;;;;5092929;28;20445;-71
2022/02/19 10:36:14;;;;;;;5.70;1.47;;;;;;;;;;5093750;28;21090;-70
2022/02/19 10:38:53;;;;;;;2.93;1.30;;;;;;;;;;5093816;28;20445;-71
2022/02/19 10:41:21;;;;;;;3.73;1.10;;;;;;;;;;5091991;28;20444;-70
2022/02/19 10:43:49;;;;;;;5.97;1.07;;;;;;;;;;5091784;28;20829;-70
2022/02/19 10:46:16;;;;;;;6.43;1.90;;;;;;;;;;5092971;28;20540;-72
2022/02/19 10:48:43;;;;;;;5.87;2.27;;;;;;;;;;5093738;28;20449;-70
2022/02/19 10:51:12;;;;;;;2.07;1.73;;;;;;;;;;5093659;28;20543;-69
2022/02/19 10:53:40;;;;;;;4.57;1.30;;;;;;;;;;5092812;28;20560;-69
2022/02/19 10:56:12;;;;;;;5.27;1.70;;;;;;;;;;5092882;28;20991;-69
2022/02/19 10:58:40;;;;;;;3.30;1.17;;;;;;;;;;5079566;28;20457;-69
2022/02/19 11:01:19;;;;;;;2.70;1.03;;;;;;;;;;5093093;28;20448;-69
2022/02/19 11:03:47;;;;;;;1.73;0.90;;;;;;;;;;5092983;28;20444;-70
2022/02/19 11:06:14;;;;;;;4.27;1.60;;;;;;;;;;5091483;28;20444;-72
2022/02/19 11:08:42;;;;;;;2.13;0.87;;;;;;;;;;5093292;28;20445;-69
2022/02/19 11:11:10;;;;;;;4.10;1.07;;;;;;;;;;5093163;28;20544;-69
2022/02/19 11:13:39;;;;;;;1.40;0.97;;;;;;;;;;5092243;28;20453;-69
2022/02/19 11:16:07;;;;;;;6.33;1.07;;;;;;;;;;5092738;28;20455;-69
2022/02/19 11:18:35;;;;;;;2.90;0.70;;;;;;;;;;5092430;28;20520;-69
2022/02/19 11:21:02;;;;;;;2.60;1.23;;;;;;;;;;5092831;28;20461;-69
2022/02/19 11:23:31;;;;;;;1.33;0.80;;;;;;;;;;5092202;28;20460;-69
2022/02/19 11:25:59;;;;;;;2.30;0.90;;;;;;;;;;5092409;28;20463;-68
2022/02/19 11:28:27;;;;;;;1.93;0.90;;;;;;;;;;5090797;28;20960;-69
2022/02/19 11:30:57;;;;;;;3.77;1.40;;;;;;;;;;5088937;28;20445;-69
2022/02/19 11:33:26;;;;;;;4.80;1.40;;;;;;;;;;5091188;28;20536;-69
2022/02/19 11:35:53;;;;;;;6.23;1.50;;;;;;;;;;5078278;28;20511;-69
2022/02/19 11:38:25;;;;;;;2.40;0.90;;;;;;;;;;5087090;28;20437;-69
2022/02/19 11:40:53;;;;;;;2.07;1.00;;;;;;;;;;5081882;28;20523;-69
2022/02/19 11:43:47;;;;;;;3.87;1.40;;;;;;;;;;5084488;28;20468;-71
2022/02/19 11:46:35;;;;;;;2.60;1.10;;;;;;;;;;5033445;28;20461;-73
2022/02/19 11:49:22;;;;;;;5.00;1.30;;;;;;;;;;5081091;28;20956;-70
2022/02/19 11:52:04;;;;;;;4.27;1.90;;;;;;;;;;5087661;28;20468;-69
2022/02/19 11:54:32;;;;;;;1.37;0.80;;;;;;;;;;5087439;28;20480;-69
2022/02/19 11:56:59;;;;;;;4.50;1.30;;;;;;;;;;5088837;28;20504;-70
2022/02/19 11:59:41;;;;;;;1.70;1.00;;;;;;;;;;5088742;28;21036;-70
2022/02/19 12:02:20;;;;;;;3.10;1.30;;;;;;;;;;5086391;28;20559;-69
2022/02/19 12:05:13;;;;;;;3.80;1.30;;;;;;;;;;5089558;28;20951;-70
2022/02/19 12:07:55;;;;;;;1.73;1.47;;;;;;;;;;5088863;28;20587;-69
2022/02/19 12:10:23;;;;;;;2.63;1.00;;;;;;;;;;5088420;28;20440;-68
2022/02/19 12:13:06;;;;;;;4.03;1.20;;;;;;;;;;5088837;28;20481;-71
2022/02/19 12:15:34;;;;;;;3.93;1.00;;;;;;;;;;5086549;28;21270;-71
2022/02/19 12:18:03;;;;;;;4.40;1.30;;;;;;;;;;5089016;28;20444;-70
2022/02/19 12:20:32;;;;;;;3.33;1.13;;;;;;;;;;5088514;28;20816;-68
2022/02/19 12:23:01;;;;;;;2.73;1.70;;;;;;;;;;5089381;28;21104;-67
2022/02/19 12:25:43;;;;;;;2.27;1.70;;;;;;;;;;5088834;28;20448;-71
2022/02/19 12:28:18;;;;;;;2.97;1.20;;;;;;;;;;5082726;28;20827;-69
2022/02/19 12:30:46;;;;;;;4.27;1.30;;;;;;;;;;5087576;28;20448;-68
2022/02/19 12:33:14;;;;;;;1.73;0.80;;;;;;;;;;5089106;28;20448;-73
2022/02/19 12:35:43;;;;;;;0.90;0.80;;;;;;;;;;5088884;28;20516;-69
2022/02/19 12:38:11;;;;;;;3.93;1.00;;;;;;;;;;5086084;28;20448;-68
2022/02/19 12:40:39;;;;;;;4.20;1.20;;;;;;;;;;5082477;28;20442;-70
2022/02/19 12:43:06;;;;;;;2.03;1.33;;;;;;;;;;5080767;28;20505;-70
2022/02/19 12:45:34;;;;;;;2.67;1.20;;;;;;;;;;5082830;28;20492;-69
2022/02/19 12:48:01;;;;;;;4.50;1.90;;;;;;;;;;5089362;28;20452;-68
2022/02/19 12:50:29;;;;;;;4.73;1.57;;;;;;;;;;5090297;28;20786;-68
2022/02/19 12:52:57;;;;;;;5.40;1.30;;;;;;;;;;5090859;28;20476;-69
2022/02/19 12:55:24;;;;;;;4.00;1.20;;;;;;;;;;5090891;28;20483;-69
2022/02/19 12:57:52;;;;;;;3.90;1.40;;;;;;;;;;5091404;28;20454;-68
2022/02/19 13:00:20;;;;;;;6.60;1.00;;;;;;;;;;5090431;28;20484;-69
2022/02/19 13:02:55;;;;;;;3.13;2.50;;;;;;;;;;5091063;28;20444;-69
2022/02/19 13:05:22;;;;;;;3.83;0.90;;;;;;;;;;5090124;28;20528;-69
2022/02/19 13:07:51;;;;;;;1.93;0.97;;;;;;;;;;5091270;28;20718;-68
2022/02/19 13:10:20;;;;;;;2.20;1.00;;;;;;;;;;5090629;28;20447;-70
2022/02/19 13:12:47;;;;;;;2.30;1.50;;;;;;;;;;5090594;28;20448;-70
2022/02/19 13:15:15;;;;;;;4.80;1.17;;;;;;;;;;5090464;28;20480;-72
2022/02/19 13:17:42;;;;;;;2.90;1.03;;;;;;;;;;5090690;28;20445;-68
2022/02/19 13:20:15;;;;;;;2.47;1.37;;;;;;;;;;5091172;28;20447;-69
2022/02/19 13:22:42;;;;;;;3.43;1.53;;;;;;;;;;5090754;28;20483;-68
2022/02/19 13:25:12;;;;;;;2.50;0.97;;;;;;;;;;5090886;28;20448;-69
2022/02/19 13:27:40;;;;;;;1.93;1.03;;;;;;;;;;5090915;28;20719;-68
2022/02/19 13:30:09;;;;;;;2.77;0.80;;;;;;;;;;5093331;28;20453;-69
2022/02/19 13:32:38;;;;;;;1.77;1.27;;;;;;;;;;5094435;28;20531;-69
2022/02/19 13:35:06;;;;;;;2.13;0.97;;;;;;;;;;5094776;28;20587;-69
2022/02/19 13:37:34;;;;;;;2.37;1.20;;;;;;;;;;5094039;28;20546;-68
2022/02/19 13:40:13;;;;;;;1.37;1.00;;;;;;;;;;5094657;28;20935;-69
2022/02/19 13:42:42;;;;;;;2.57;1.00;;;;;;;;;;5094481;28;20436;-68
2022/02/19 13:45:10;;;;;;;1.83;1.03;;;;;;;;;;5094336;28;20475;-69
2022/02/19 13:47:38;;;;;;;1.57;0.80;;;;;;;;;;5094303;28;20440;-69
2022/02/19 13:50:06;;;;;;;1.30;0.80;;;;;;;;;;5094393;28;20450;-69
2022/02/19 13:52:34;;;;;;;5.70;1.07;;;;;;;;;;5093095;28;20992;-69
2022/02/19 13:55:09;;;;;;;2.07;1.00;;;;;;;;;;5094478;28;20484;-69
2022/02/19 13:57:37;;;;;;;3.57;1.57;;;;;;;;;;5093915;28;20448;-69
2022/02/19 14:00:07;;;;;;;1.07;0.63;;;;;;;;;;5080966;28;20540;-69
2022/02/19 14:02:35;;;;;;;2.60;1.13;;;;;;;;;;5093165;28;20432;-69
2022/02/19 14:05:03;;;;;;;2.13;1.17;;;;;;;;;;5094208;28;20532;-69
2022/02/19 14:07:30;;;;;;;1.23;0.70;;;;;;;;;;5093436;28;20491;-69
2022/02/19 14:10:05;;;;;;;1.80;1.03;;;;;;;;;;5094694;28;20447;-69
2022/02/19 14:12:38;;;;;;;1.23;0.70;;;;;;;;;;5093330;28;20447;-69
2022/02/19 14:15:05;;;;;;;6.70;1.27;;;;;;;;;;5094499;28;20506;-68
2022/02/19 14:17:42;;;;;;;1.60;1.00;;;;;;;;;;5093607;28;20977;-69
2022/02/19 14:20:11;;;;;;;1.43;0.77;;;;;;;;;;5094255;28;20954;-69
2022/02/19 14:22:39;;;;;;;6.73;1.10;;;;;;;;;;5093589;28;20480;-69
2022/02/19 14:25:07;;;;;;;2.10;0.87;;;;;;;;;;5094279;28;20527;-69
2022/02/19 14:27:48;;;;;;;2.27;1.00;;;;;;;;;;5093780;28;21165;-69
2022/02/19 14:30:16;;;;;;;5.63;1.40;;;;;;;;;;5093887;28;20515;-73
2022/02/19 14:32:43;;;;;;;2.23;0.90;;;;;;;;;;5093511;28;20452;-69
2022/02/19 14:35:10;;;;;;;1.83;0.70;;;;;;;;;;5094020;28;20598;-69
2022/02/19 14:37:38;;;;;;;2.27;1.33;;;;;;;;;;5093003;28;20449;-69
2022/02/19 14:40:05;;;;;;;3.10;0.93;;;;;;;;;;5093407;28;20535;-69
2022/02/19 14:42:33;;;;;;;2.37;1.00;;;;;;;;;;5092101;28;21317;-69
2022/02/19 14:45:01;;;;;;;1.00;0.73;;;;;;;;;;5093268;28;20951;-69
2022/02/19 14:47:29;;;;;;;3.73;1.20;;;;;;;;;;5092815;28;20939;-69
2022/02/19 14:49:57;;;;;;;4.00;0.97;;;;;;;;;;5093336;28;20449;-69
2022/02/19 14:52:24;;;;;;;2.93;1.50;;;;;;;;;;5092549;28;20480;-69
2022/02/19 14:54:53;;;;;;;3.03;0.90;;;;;;;;;;5093526;28;20448;-69
2022/02/19 14:57:20;;;;;;;6.60;1.20;;;;;;;;;;5092528;28;20539;-69
2022/02/19 14:59:47;;;;;;;3.13;0.80;;;;;;;;;;5092989;28;20567;-70
2022/02/19 15:02:16;;;;;;;3.47;0.90;;;;;;;;;;5092885;28;20448;-73